createdAt,value
2023-01-31T00:04:46.025Z,87.75
2023-01-31T00:09:48.041Z,88.28
2023-01-31T00:14:53.500Z,88.30
2023-01-31T00:19:55.502Z,88.12
2023-01-31T00:24:57.371Z,88.19
2023-01-31T00:29:59.374Z,87.93
2023-01-31T00:35:01.456Z,88.02
2023-01-31T00:40:05.044Z,88.45
2023-01-31T00:45:07.569Z,88.50
2023-01-31T00:50:14.137Z,88.58
2023-01-31T00:55:16.397Z,88.70
2023-01-31T01:00:18.721Z,88.68
2023-01-31T01:05:22.212Z,88.30
2023-01-31T01:10:24.537Z,88.07
2023-01-31T01:15:26.539Z,87.99
2023-01-31T01:20:31.414Z,87.75
2023-01-31T01:25:44.802Z,87.29
2023-01-31T01:30:46.869Z,87.12
2023-01-31T01:35:48.859Z,86.90
2023-01-31T01:40:51.587Z,86.56
2023-01-31T01:45:53.648Z,86.31
2023-01-31T01:50:56.033Z,86.42
2023-01-31T01:56:03.687Z,86.41
2023-01-31T02:01:10.924Z,86.74
2023-01-31T02:06:15.982Z,86.80
2023-01-31T02:11:26.252Z,87.18
2023-01-31T02:16:29.740Z,87.17
2023-01-31T02:21:37.553Z,86.94
2023-01-31T02:26:53.295Z,87.18
2023-01-31T02:32:31.160Z,87.27
2023-01-31T02:38:02.907Z,86.97
2023-01-31T02:43:23.752Z,86.60
2023-01-31T02:48:37.001Z,86.33
2023-01-31T02:53:48.564Z,86.52
2023-01-31T02:59:02.476Z,86.08
2023-01-31T03:04:09.748Z,86.24
2023-01-31T03:09:22.204Z,85.78
2023-01-31T03:14:33.765Z,85.70
2023-01-31T03:19:51.252Z,85.27
2023-01-31T03:24:54.876Z,85.30
2023-01-31T03:30:05.524Z,84.71
2023-01-31T03:35:09.657Z,84.57
2023-01-31T03:40:21.532Z,84.64
2023-01-31T03:45:36.304Z,85.31
2023-01-31T03:50:46.542Z,85.44
2023-01-31T03:55:53.121Z,85.64
2023-01-31T04:00:58.492Z,86.47
2023-01-31T04:06:01.794Z,86.73
2023-01-31T04:11:13.949Z,86.81
2023-01-31T04:16:16.346Z,87.17
2023-01-31T04:21:18.588Z,87.20
2023-01-31T04:26:20.582Z,87.01
2023-01-31T04:31:22.486Z,87.00
2023-01-31T04:36:25.511Z,87.00
2023-01-31T04:41:28.427Z,86.21
2023-01-31T04:46:30.442Z,85.51
2023-01-31T04:51:32.878Z,85.36
2023-01-31T04:56:35.113Z,84.66
2023-01-31T05:01:38.179Z,84.55
2023-01-31T05:06:40.160Z,84.42
2023-01-31T05:11:42.341Z,84.84
2023-01-31T05:16:47.348Z,85.25
2023-01-31T05:21:55.439Z,85.51
2023-01-31T05:27:01.315Z,85.83
2023-01-31T05:32:04.046Z,86.01
2023-01-31T05:37:09.723Z,86.43
2023-01-31T05:42:14.800Z,86.27
2023-01-31T05:47:17.105Z,86.40
2023-01-31T05:52:19.311Z,86.30
2023-01-31T05:57:22.558Z,86.17
2023-01-31T06:02:24.745Z,86.04
2023-01-31T06:07:26.842Z,85.80
2023-01-31T06:12:32.068Z,85.43
2023-01-31T06:17:34.649Z,84.91
2023-01-31T06:22:36.635Z,84.83
2023-01-31T06:27:39.027Z,84.73
2023-01-31T06:32:41.038Z,84.52
2023-01-31T06:37:43.751Z,84.38
2023-01-31T06:42:46.481Z,83.93
2023-01-31T06:47:48.549Z,83.85
2023-01-31T06:53:00.615Z,83.75
2023-01-31T06:58:07.916Z,83.05
2023-01-31T07:03:10.596Z,82.74
2023-01-31T07:08:13.879Z,82.17
2023-01-31T07:13:23.392Z,81.96
2023-01-31T07:18:25.596Z,81.25
2023-01-31T07:23:31.177Z,81.23
2023-01-31T07:28:36.238Z,81.04
2023-01-31T07:33:39.827Z,81.10
2023-01-31T07:38:42.575Z,81.00
2023-01-31T07:43:44.461Z,81.36
2023-01-31T07:48:49.588Z,81.10
2023-01-31T07:53:52.323Z,80.54
2023-01-31T07:58:56.734Z,80.56
2023-01-31T08:04:10.740Z,80.56
2023-01-31T08:09:21.029Z,80.41
2023-01-31T08:14:25.940Z,80.23
2023-01-31T08:19:27.979Z,80.32
2023-01-31T08:24:31.754Z,79.51
2023-01-31T08:29:35.166Z,79.48
2023-01-31T08:34:39.911Z,79.18
2023-01-31T08:39:45.555Z,78.92
2023-01-31T08:44:47.602Z,78.68
2023-01-31T08:49:52.303Z,78.34
2023-01-31T08:54:54.319Z,77.78
2023-01-31T08:59:56.633Z,77.56
2023-01-31T09:04:58.762Z,76.86
2023-01-31T09:10:01.317Z,76.00
2023-01-31T09:15:04.654Z,76.13
2023-01-31T09:20:10.026Z,76.09
2023-01-31T09:25:12.218Z,75.78
2023-01-31T09:30:14.628Z,76.09
2023-01-31T09:35:19.343Z,75.78
2023-01-31T09:40:25.106Z,74.96
2023-01-31T09:45:32.066Z,75.44
2023-01-31T09:50:41.055Z,75.35
2023-01-31T09:56:14.231Z,75.35
2023-01-31T10:01:43.893Z,75.15
2023-01-31T10:07:17.174Z,74.86
2023-01-31T10:12:25.376Z,75.13
2023-01-31T10:17:40.711Z,74.41
2023-01-31T10:23:09.941Z,74.52
2023-01-31T10:28:22.640Z,74.79
2023-01-31T10:33:35.465Z,74.61
2023-01-31T10:38:54.805Z,74.64
2023-01-31T10:44:06.668Z,74.28
2023-01-31T10:49:10.739Z,73.96
2023-01-31T10:54:32.738Z,73.08
2023-01-31T10:59:42.379Z,72.85
2023-01-31T11:04:44.890Z,73.04
2023-01-31T11:09:54.422Z,73.14
2023-01-31T11:15:20.870Z,73.65
2023-01-31T11:20:37.325Z,72.99
2023-01-31T11:25:53.836Z,73.94
2023-01-31T11:30:56.571Z,74.21
2023-01-31T11:35:58.657Z,73.14
2023-01-31T11:41:33.997Z,73.32
2023-01-31T11:46:58.104Z,72.81
2023-01-31T11:52:12.184Z,72.95
2023-01-31T11:57:41.558Z,73.05
2023-01-31T12:02:43.863Z,72.97
2023-01-31T12:07:50.444Z,73.34
2023-01-31T12:12:53.157Z,73.82
2023-01-31T12:17:56.135Z,74.03
2023-01-31T12:23:32.230Z,74.08
2023-01-31T12:28:59.197Z,74.52
2023-01-31T12:34:13.261Z,74.97
2023-01-31T12:39:37.357Z,75.74
2023-01-31T12:44:47.731Z,76.40
2023-01-31T12:50:34.700Z,76.48
2023-01-31T12:55:46.417Z,76.06
2023-01-31T13:01:09.322Z,76.53
2023-01-31T13:06:21.601Z,76.97
2023-01-31T13:11:39.022Z,76.76
2023-01-31T13:16:46.800Z,76.54
2023-01-31T13:21:59.322Z,76.46
2023-01-31T13:27:10.623Z,76.41
2023-01-31T13:32:28.155Z,76.79
2023-01-31T13:37:35.482Z,76.92
2023-01-31T13:42:37.352Z,77.05
2023-01-31T13:47:48.447Z,77.66
2023-01-31T13:52:56.997Z,77.75
2023-01-31T13:58:05.685Z,78.15
2023-01-31T14:03:13.655Z,78.42
2023-01-31T14:08:27.660Z,79.07
2023-01-31T14:13:37.781Z,79.51
2023-01-31T14:18:46.627Z,79.89
2023-01-31T14:23:49.532Z,80.21
2023-01-31T14:28:51.955Z,80.12
2023-01-31T14:33:57.544Z,80.08
2023-01-31T14:39:38.187Z,80.05
2023-01-31T14:44:52.248Z,80.12
2023-01-31T14:50:29.547Z,80.57
2023-01-31T14:55:56.018Z,80.84
2023-01-31T15:01:01.158Z,81.23
2023-01-31T15:06:15.978Z,81.02
2023-01-31T15:11:41.409Z,81.25
2023-01-31T15:16:44.934Z,81.39
2023-01-31T15:21:52.043Z,81.42
2023-01-31T15:26:59.247Z,81.68
2023-01-31T15:32:19.157Z,81.96
2023-01-31T15:37:28.973Z,82.03
2023-01-31T15:42:33.807Z,82.00
2023-01-31T15:47:35.714Z,82.19
2023-01-31T15:52:38.335Z,82.16
2023-01-31T15:57:57.317Z,82.42
2023-01-31T16:03:00.980Z,82.43
2023-01-31T16:08:07.096Z,82.53
2023-01-31T16:13:09.328Z,82.59
2023-01-31T16:18:13.075Z,82.52
2023-01-31T16:23:28.564Z,82.57
2023-01-31T16:28:42.305Z,82.76
2023-01-31T16:33:51.065Z,82.84
2023-01-31T16:39:06.495Z,83.11
2023-01-31T16:44:18.772Z,83.10
2023-01-31T16:49:29.950Z,83.31
2023-01-31T16:54:44.414Z,83.32
2023-01-31T16:59:49.263Z,83.21
2023-01-31T17:04:53.895Z,83.41
2023-01-31T17:10:02.670Z,83.79
2023-01-31T17:15:19.947Z,84.27
2023-01-31T17:20:22.519Z,84.58
2023-01-31T17:25:30.649Z,85.00
2023-01-31T17:30:34.308Z,85.30
2023-01-31T17:35:41.833Z,85.62
2023-01-31T17:40:45.280Z,85.62
2023-01-31T17:45:50.265Z,86.06
2023-01-31T17:50:53.667Z,86.33
2023-01-31T17:55:56.256Z,86.64
2023-01-31T18:00:58.162Z,86.93
2023-01-31T18:06:08.395Z,87.09
2023-01-31T18:11:14.162Z,87.26
2023-01-31T18:16:19.226Z,87.21
2023-01-31T18:21:22.986Z,87.34
2023-01-31T18:26:25.442Z,87.18
2023-01-31T18:31:32.110Z,87.38
2023-01-31T18:36:34.435Z,87.77
2023-01-31T18:41:37.034Z,87.75
2023-01-31T18:46:41.419Z,87.55
2023-01-31T18:51:43.696Z,87.76
2023-01-31T18:56:49.767Z,88.33
2023-01-31T19:01:53.240Z,88.61
2023-01-31T19:06:55.373Z,88.88
2023-01-31T19:11:57.275Z,88.59
2023-01-31T19:16:59.672Z,88.75
2023-01-31T19:22:02.398Z,88.87
2023-01-31T19:27:11.886Z,89.10
2023-01-31T19:32:13.863Z,89.13
2023-01-31T19:37:15.887Z,88.89
2023-01-31T19:42:17.788Z,88.99
2023-01-31T19:47:20.216Z,89.01
2023-01-31T19:52:22.086Z,89.10
2023-01-31T19:57:24.628Z,89.18
2023-01-31T20:02:27.117Z,89.29
2023-01-31T20:07:29.179Z,89.03
2023-01-31T20:12:33.277Z,88.81
2023-01-31T20:17:37.519Z,89.11
2023-01-31T20:22:41.890Z,89.06
2023-01-31T20:27:43.946Z,89.31
2023-01-31T20:32:47.708Z,89.62
2023-01-31T20:37:50.191Z,89.85
2023-01-31T20:42:52.187Z,89.88
2023-01-31T20:47:56.062Z,89.81
2023-01-31T20:52:58.000Z,89.61
2023-01-31T20:58:02.000Z,89.93
2023-01-31T21:03:03.982Z,90.05
2023-01-31T21:08:06.459Z,90.06
2023-01-31T21:13:09.111Z,89.46
2023-01-31T21:18:11.045Z,89.54
2023-01-31T21:23:13.656Z,89.44
2023-01-31T21:28:16.327Z,89.98
2023-01-31T21:33:26.879Z,89.75
2023-01-31T21:38:29.002Z,89.49
2023-01-31T21:43:31.085Z,89.57
2023-01-31T21:48:33.100Z,89.57
2023-01-31T21:53:35.345Z,89.70
2023-01-31T21:58:39.269Z,89.42
2023-01-31T22:03:45.213Z,89.11
2023-01-31T22:08:52.264Z,89.16
2023-01-31T22:14:04.362Z,89.21
2023-01-31T22:19:07.083Z,89.10
2023-01-31T22:24:11.731Z,88.72
2023-01-31T22:29:16.694Z,88.53
2023-01-31T22:34:19.050Z,88.50
2023-01-31T22:39:21.904Z,88.19
2023-01-31T22:44:24.105Z,88.41
2023-01-31T22:49:25.999Z,88.30
2023-01-31T22:54:27.955Z,87.96
2023-01-31T22:59:29.957Z,88.07
2023-01-31T23:04:32.046Z,88.41
2023-01-31T23:09:33.972Z,88.22
2023-01-31T23:14:36.026Z,87.76
2023-01-31T23:19:37.971Z,88.10
2023-01-31T23:24:39.985Z,88.13
2023-01-31T23:29:44.896Z,87.56
2023-01-31T23:34:47.131Z,87.72
2023-01-31T23:39:49.414Z,87.85
2023-01-31T23:44:51.715Z,88.50
2023-01-31T23:49:53.785Z,88.38
2023-01-31T23:54:55.759Z,88.19
2023-01-31T23:59:57.752Z,88.36
